sensor_id;sensor_type;location;lat;lon;timestamp;temperature;humidity
34927;DHT22;21132;48.308;14.274;2022-07-06T00:01:51;21.70;59.20
34927;DHT22;21132;48.308;14.274;2022-07-06T00:04:20;21.70;59.80
34927;DHT22;21132;48.308;14.274;2022-07-06T00:06:46;21.70;59.80
34927;DHT22;21132;48.308;14.274;2022-07-06T00:09:12;21.60;59.70
34927;DHT22;21132;48.308;14.274;2022-07-06T00:11:38;21.60;59.70
34927;DHT22;21132;48.308;14.274;2022-07-06T00:14:04;21.60;60.10
34927;DHT22;21132;48.308;14.274;2022-07-06T00:16:30;21.60;60.10
34927;DHT22;21132;48.308;14.274;2022-07-06T00:18:56;21.60;60.00
34927;DHT22;21132;48.308;14.274;2022-07-06T00:21:23;21.50;60.10
34927;DHT22;21132;48.308;14.274;2022-07-06T00:23:49;21.50;60.40
34927;DHT22;21132;48.308;14.274;2022-07-06T00:26:15;21.50;60.30
34927;DHT22;21132;48.308;14.274;2022-07-06T00:28:41;21.50;60.60
34927;DHT22;21132;48.308;14.274;2022-07-06T00:31:07;21.40;60.50
34927;DHT22;21132;48.308;14.274;2022-07-06T00:33:32;21.40;60.60
34927;DHT22;21132;48.308;14.274;2022-07-06T00:35:58;21.40;60.80
34927;DHT22;21132;48.308;14.274;2022-07-06T00:38:24;21.30;60.90
34927;DHT22;21132;48.308;14.274;2022-07-06T00:40:50;21.30;61.10
34927;DHT22;21132;48.308;14.274;2022-07-06T00:43:16;21.30;61.50
34927;DHT22;21132;48.308;14.274;2022-07-06T00:45:41;21.20;61.70
34927;DHT22;21132;48.308;14.274;2022-07-06T00:48:09;21.20;61.40
34927;DHT22;21132;48.308;14.274;2022-07-06T00:50:35;21.20;61.20
34927;DHT22;21132;48.308;14.274;2022-07-06T00:53:03;21.20;61.40
34927;DHT22;21132;48.308;14.274;2022-07-06T00:55:31;21.10;61.30
34927;DHT22;21132;48.308;14.274;2022-07-06T00:57:57;21.10;61.30
34927;DHT22;21132;48.308;14.274;2022-07-06T01:00:26;21.10;61.20
34927;DHT22;21132;48.308;14.274;2022-07-06T01:02:52;21.00;61.20
34927;DHT22;21132;48.308;14.274;2022-07-06T01:05:18;21.00;61.20
34927;DHT22;21132;48.308;14.274;2022-07-06T01:07:46;20.90;61.40
34927;DHT22;21132;48.308;14.274;2022-07-06T01:10:14;20.90;62.00
34927;DHT22;21132;48.308;14.274;2022-07-06T01:12:41;20.90;62.20
34927;DHT22;21132;48.308;14.274;2022-07-06T01:15:10;20.90;62.20
34927;DHT22;21132;48.308;14.274;2022-07-06T01:17:37;20.80;62.30
34927;DHT22;21132;48.308;14.274;2022-07-06T01:22:43;20.80;62.70
34927;DHT22;21132;48.308;14.274;2022-07-06T01:25:10;20.80;62.30
34927;DHT22;21132;48.308;14.274;2022-07-06T01:27:37;20.80;62.60
34927;DHT22;21132;48.308;14.274;2022-07-06T01:30:15;20.70;62.50
34927;DHT22;21132;48.308;14.274;2022-07-06T01:32:42;20.70;63.70
34927;DHT22;21132;48.308;14.274;2022-07-06T01:35:12;20.70;62.80
34927;DHT22;21132;48.308;14.274;2022-07-06T01:37:39;20.70;62.90
34927;DHT22;21132;48.308;14.274;2022-07-06T01:40:07;20.60;62.80
34927;DHT22;21132;48.308;14.274;2022-07-06T01:42:34;20.60;62.80
34927;DHT22;21132;48.308;14.274;2022-07-06T01:45:00;20.60;62.90
34927;DHT22;21132;48.308;14.274;2022-07-06T01:47:27;20.60;63.10
34927;DHT22;21132;48.308;14.274;2022-07-06T01:49:53;20.60;63.20
34927;DHT22;21132;48.308;14.274;2022-07-06T01:52:18;20.50;63.10
34927;DHT22;21132;48.308;14.274;2022-07-06T01:54:44;20.50;63.20
34927;DHT22;21132;48.308;14.274;2022-07-06T01:57:10;20.50;63.40
34927;DHT22;21132;48.308;14.274;2022-07-06T01:59:36;20.50;63.60
34927;DHT22;21132;48.308;14.274;2022-07-06T02:02:02;20.40;63.60
34927;DHT22;21132;48.308;14.274;2022-07-06T02:04:28;20.40;63.50
34927;DHT22;21132;48.308;14.274;2022-07-06T02:06:54;20.40;63.70
34927;DHT22;21132;48.308;14.274;2022-07-06T02:09:20;20.40;63.90
34927;DHT22;21132;48.308;14.274;2022-07-06T02:11:45;20.40;63.80
34927;DHT22;21132;48.308;14.274;2022-07-06T02:14:11;20.40;64.70
34927;DHT22;21132;48.308;14.274;2022-07-06T02:16:37;20.30;63.80
34927;DHT22;21132;48.308;14.274;2022-07-06T02:19:03;20.30;63.90
34927;DHT22;21132;48.308;14.274;2022-07-06T02:21:29;20.30;64.00
34927;DHT22;21132;48.308;14.274;2022-07-06T02:23:55;20.20;64.10
34927;DHT22;21132;48.308;14.274;2022-07-06T02:26:21;20.30;64.10
34927;DHT22;21132;48.308;14.274;2022-07-06T02:28:46;20.30;64.20
34927;DHT22;21132;48.308;14.274;2022-07-06T02:31:14;20.20;64.20
34927;DHT22;21132;48.308;14.274;2022-07-06T02:33:40;20.20;64.60
34927;DHT22;21132;48.308;14.274;2022-07-06T02:36:06;20.10;64.40
34927;DHT22;21132;48.308;14.274;2022-07-06T02:38:32;20.10;64.60
34927;DHT22;21132;48.308;14.274;2022-07-06T02:40:58;20.10;64.40
34927;DHT22;21132;48.308;14.274;2022-07-06T02:43:24;20.10;64.40
34927;DHT22;21132;48.308;14.274;2022-07-06T02:45:50;20.10;64.50
34927;DHT22;21132;48.308;14.274;2022-07-06T02:48:16;20.10;64.80
34927;DHT22;21132;48.308;14.274;2022-07-06T02:50:43;20.00;64.60
34927;DHT22;21132;48.308;14.274;2022-07-06T02:53:09;20.00;64.60
34927;DHT22;21132;48.308;14.274;2022-07-06T02:55:35;20.00;64.60
34927;DHT22;21132;48.308;14.274;2022-07-06T02:58:00;19.90;64.60
34927;DHT22;21132;48.308;14.274;2022-07-06T03:00:26;19.90;64.80
34927;DHT22;21132;48.308;14.274;2022-07-06T03:02:52;19.90;65.00
34927;DHT22;21132;48.308;14.274;2022-07-06T03:05:18;19.90;65.20
34927;DHT22;21132;48.308;14.274;2022-07-06T03:07:44;19.90;65.10
34927;DHT22;21132;48.308;14.274;2022-07-06T03:10:09;19.80;65.20
34927;DHT22;21132;48.308;14.274;2022-07-06T03:12:35;19.80;65.30
34927;DHT22;21132;48.308;14.274;2022-07-06T03:15:01;19.90;65.30
34927;DHT22;21132;48.308;14.274;2022-07-06T03:17:27;19.80;65.30
34927;DHT22;21132;48.308;14.274;2022-07-06T03:19:52;19.80;66.20
34927;DHT22;21132;48.308;14.274;2022-07-06T03:22:18;19.80;65.80
34927;DHT22;21132;48.308;14.274;2022-07-06T03:24:44;19.80;66.00
34927;DHT22;21132;48.308;14.274;2022-07-06T03:27:10;19.80;66.00
34927;DHT22;21132;48.308;14.274;2022-07-06T03:29:36;19.80;66.10
34927;DHT22;21132;48.308;14.274;2022-07-06T03:32:02;19.80;66.00
34927;DHT22;21132;48.308;14.274;2022-07-06T03:34:28;19.80;66.00
34927;DHT22;21132;48.308;14.274;2022-07-06T03:36:53;19.80;66.00
34927;DHT22;21132;48.308;14.274;2022-07-06T03:39:19;19.90;66.40
34927;DHT22;21132;48.308;14.274;2022-07-06T03:41:45;19.80;66.30
34927;DHT22;21132;48.308;14.274;2022-07-06T03:44:11;19.90;66.60
34927;DHT22;21132;48.308;14.274;2022-07-06T03:46:37;19.90;66.70
34927;DHT22;21132;48.308;14.274;2022-07-06T03:49:02;19.90;66.60
34927;DHT22;21132;48.308;14.274;2022-07-06T03:51:28;19.90;66.60
34927;DHT22;21132;48.308;14.274;2022-07-06T03:53:54;19.90;66.60
34927;DHT22;21132;48.308;14.274;2022-07-06T03:56:20;19.90;66.80
34927;DHT22;21132;48.308;14.274;2022-07-06T03:59:01;20.00;66.80
34927;DHT22;21132;48.308;14.274;2022-07-06T04:01:30;20.00;67.20
34927;DHT22;21132;48.308;14.274;2022-07-06T04:03:58;20.00;67.20
34927;DHT22;21132;48.308;14.274;2022-07-06T04:06:25;20.10;67.40
34927;DHT22;21132;48.308;14.274;2022-07-06T04:08:51;20.00;67.70
34927;DHT22;21132;48.308;14.274;2022-07-06T04:11:17;20.10;68.30
34927;DHT22;21132;48.308;14.274;2022-07-06T04:13:43;20.10;68.50
34927;DHT22;21132;48.308;14.274;2022-07-06T04:16:09;20.10;68.70
34927;DHT22;21132;48.308;14.274;2022-07-06T04:18:35;20.20;68.80
34927;DHT22;21132;48.308;14.274;2022-07-06T04:21:00;20.20;68.70
34927;DHT22;21132;48.308;14.274;2022-07-06T04:23:27;20.20;68.60
34927;DHT22;21132;48.308;14.274;2022-07-06T04:25:53;20.20;68.60
34927;DHT22;21132;48.308;14.274;2022-07-06T04:28:19;20.30;68.50
34927;DHT22;21132;48.308;14.274;2022-07-06T04:30:45;20.30;68.40
34927;DHT22;21132;48.308;14.274;2022-07-06T04:33:11;20.30;68.50
34927;DHT22;21132;48.308;14.274;2022-07-06T04:35:36;20.40;68.50
34927;DHT22;21132;48.308;14.274;2022-07-06T04:38:05;20.40;68.40
34927;DHT22;21132;48.308;14.274;2022-07-06T04:40:31;20.50;68.40
34927;DHT22;21132;48.308;14.274;2022-07-06T04:42:57;20.50;68.40
34927;DHT22;21132;48.308;14.274;2022-07-06T04:45:23;20.50;68.30
34927;DHT22;21132;48.308;14.274;2022-07-06T04:47:49;20.60;68.20
34927;DHT22;21132;48.308;14.274;2022-07-06T04:50:15;20.60;68.20
34927;DHT22;21132;48.308;14.274;2022-07-06T04:52:41;20.70;68.00
34927;DHT22;21132;48.308;14.274;2022-07-06T04:55:07;20.70;67.90
34927;DHT22;21132;48.308;14.274;2022-07-06T04:57:34;20.80;67.80
34927;DHT22;21132;48.308;14.274;2022-07-06T05:00:00;20.80;67.60
34927;DHT22;21132;48.308;14.274;2022-07-06T05:02:26;20.90;67.50
34927;DHT22;21132;48.308;14.274;2022-07-06T05:04:52;21.00;67.40
34927;DHT22;21132;48.308;14.274;2022-07-06T05:07:18;21.00;67.30
34927;DHT22;21132;48.308;14.274;2022-07-06T05:09:44;21.00;67.20
34927;DHT22;21132;48.308;14.274;2022-07-06T05:12:10;21.10;67.20
34927;DHT22;21132;48.308;14.274;2022-07-06T05:14:37;21.20;67.10
34927;DHT22;21132;48.308;14.274;2022-07-06T05:17:03;21.20;67.00
34927;DHT22;21132;48.308;14.274;2022-07-06T05:19:28;21.30;66.90
34927;DHT22;21132;48.308;14.274;2022-07-06T05:21:54;21.40;66.80
34927;DHT22;21132;48.308;14.274;2022-07-06T05:24:20;21.40;66.70
34927;DHT22;21132;48.308;14.274;2022-07-06T05:26:46;21.50;66.50
34927;DHT22;21132;48.308;14.274;2022-07-06T05:29:12;21.50;66.30
34927;DHT22;21132;48.308;14.274;2022-07-06T05:31:38;21.60;66.00
34927;DHT22;21132;48.308;14.274;2022-07-06T05:34:04;21.70;65.50
34927;DHT22;21132;48.308;14.274;2022-07-06T05:36:29;21.70;65.00
34927;DHT22;21132;48.308;14.274;2022-07-06T05:38:55;21.70;65.60
34927;DHT22;21132;48.308;14.274;2022-07-06T05:41:21;21.80;64.80
34927;DHT22;21132;48.308;14.274;2022-07-06T05:43:47;21.90;64.70
34927;DHT22;21132;48.308;14.274;2022-07-06T05:46:12;21.90;64.70
34927;DHT22;21132;48.308;14.274;2022-07-06T05:48:38;21.90;64.50
34927;DHT22;21132;48.308;14.274;2022-07-06T05:51:22;22.00;64.40
34927;DHT22;21132;48.308;14.274;2022-07-06T05:53:48;22.10;64.50
34927;DHT22;21132;48.308;14.274;2022-07-06T05:56:14;22.10;63.60
34927;DHT22;21132;48.308;14.274;2022-07-06T05:58:40;22.10;63.00
34927;DHT22;21132;48.308;14.274;2022-07-06T06:01:05;22.20;62.40
34927;DHT22;21132;48.308;14.274;2022-07-06T06:03:33;22.20;62.20
34927;DHT22;21132;48.308;14.274;2022-07-06T06:05:59;22.30;61.90
34927;DHT22;21132;48.308;14.274;2022-07-06T06:08:25;22.30;61.70
34927;DHT22;21132;48.308;14.274;2022-07-06T06:10:52;22.40;61.30
34927;DHT22;21132;48.308;14.274;2022-07-06T06:13:18;22.40;60.60
34927;DHT22;21132;48.308;14.274;2022-07-06T06:15:44;22.40;60.00
34927;DHT22;21132;48.308;14.274;2022-07-06T06:18:10;22.50;59.10
34927;DHT22;21132;48.308;14.274;2022-07-06T06:20:36;22.50;59.00
34927;DHT22;21132;48.308;14.274;2022-07-06T06:23:02;22.60;58.60
34927;DHT22;21132;48.308;14.274;2022-07-06T06:25:30;22.60;58.30
34927;DHT22;21132;48.308;14.274;2022-07-06T06:27:56;22.70;57.60
34927;DHT22;21132;48.308;14.274;2022-07-06T06:30:22;22.70;57.50
34927;DHT22;21132;48.308;14.274;2022-07-06T06:32:48;22.80;56.80
34927;DHT22;21132;48.308;14.274;2022-07-06T06:35:14;22.90;56.50
34927;DHT22;21132;48.308;14.274;2022-07-06T06:37:40;22.90;56.40
34927;DHT22;21132;48.308;14.274;2022-07-06T06:40:07;22.90;56.40
34927;DHT22;21132;48.308;14.274;2022-07-06T06:42:35;23.00;55.90
34927;DHT22;21132;48.308;14.274;2022-07-06T06:45:02;23.00;55.60
34927;DHT22;21132;48.308;14.274;2022-07-06T06:47:27;23.00;55.70
34927;DHT22;21132;48.308;14.274;2022-07-06T06:49:53;23.10;56.00
34927;DHT22;21132;48.308;14.274;2022-07-06T06:52:19;23.10;56.20
34927;DHT22;21132;48.308;14.274;2022-07-06T06:54:45;23.10;56.50
34927;DHT22;21132;48.308;14.274;2022-07-06T06:57:11;23.20;55.70
34927;DHT22;21132;48.308;14.274;2022-07-06T06:59:39;23.20;55.60
34927;DHT22;21132;48.308;14.274;2022-07-06T07:02:06;23.30;55.50
34927;DHT22;21132;48.308;14.274;2022-07-06T07:04:32;23.30;55.70
34927;DHT22;21132;48.308;14.274;2022-07-06T07:06:58;23.40;56.00
34927;DHT22;21132;48.308;14.274;2022-07-06T07:09:24;23.40;56.10
34927;DHT22;21132;48.308;14.274;2022-07-06T07:11:50;23.50;55.90
34927;DHT22;21132;48.308;14.274;2022-07-06T07:14:16;23.50;56.30
34927;DHT22;21132;48.308;14.274;2022-07-06T07:16:42;23.60;56.60
34927;DHT22;21132;48.308;14.274;2022-07-06T07:19:08;23.70;56.80
34927;DHT22;21132;48.308;14.274;2022-07-06T07:21:34;23.70;56.80
34927;DHT22;21132;48.308;14.274;2022-07-06T07:24:00;23.80;56.90
34927;DHT22;21132;48.308;14.274;2022-07-06T07:26:26;23.90;56.70
34927;DHT22;21132;48.308;14.274;2022-07-06T07:28:51;23.90;56.50
34927;DHT22;21132;48.308;14.274;2022-07-06T07:31:17;24.00;56.60
34927;DHT22;21132;48.308;14.274;2022-07-06T07:33:43;24.00;56.50
34927;DHT22;21132;48.308;14.274;2022-07-06T07:36:09;24.00;56.00
34927;DHT22;21132;48.308;14.274;2022-07-06T07:38:35;24.10;56.10
34927;DHT22;21132;48.308;14.274;2022-07-06T07:41:01;24.20;56.20
34927;DHT22;21132;48.308;14.274;2022-07-06T07:43:26;24.30;56.00
34927;DHT22;21132;48.308;14.274;2022-07-06T07:45:52;24.30;56.10
34927;DHT22;21132;48.308;14.274;2022-07-06T07:48:18;24.40;55.50
34927;DHT22;21132;48.308;14.274;2022-07-06T07:50:44;24.50;55.80
34927;DHT22;21132;48.308;14.274;2022-07-06T07:53:10;24.70;55.30
34927;DHT22;21132;48.308;14.274;2022-07-06T07:55:36;24.80;54.20
34927;DHT22;21132;48.308;14.274;2022-07-06T07:58:01;24.90;53.30
34927;DHT22;21132;48.308;14.274;2022-07-06T08:00:27;24.90;52.00
34927;DHT22;21132;48.308;14.274;2022-07-06T08:02:54;24.90;51.80
34927;DHT22;21132;48.308;14.274;2022-07-06T08:05:20;25.00;52.10
34927;DHT22;21132;48.308;14.274;2022-07-06T08:07:46;25.00;51.20
34927;DHT22;21132;48.308;14.274;2022-07-06T08:10:12;25.00;50.40
34927;DHT22;21132;48.308;14.274;2022-07-06T08:12:38;25.10;50.90
34927;DHT22;21132;48.308;14.274;2022-07-06T08:15:05;25.10;51.00
34927;DHT22;21132;48.308;14.274;2022-07-06T08:17:31;25.20;50.10
34927;DHT22;21132;48.308;14.274;2022-07-06T08:19:57;25.30;49.70
34927;DHT22;21132;48.308;14.274;2022-07-06T08:22:23;25.30;49.10
34927;DHT22;21132;48.308;14.274;2022-07-06T08:24:49;25.40;48.80
34927;DHT22;21132;48.308;14.274;2022-07-06T08:27:14;25.50;47.70
34927;DHT22;21132;48.308;14.274;2022-07-06T08:29:41;25.50;48.00
34927;DHT22;21132;48.308;14.274;2022-07-06T08:32:07;25.50;47.30
34927;DHT22;21132;48.308;14.274;2022-07-06T08:34:32;25.50;46.80
34927;DHT22;21132;48.308;14.274;2022-07-06T08:36:58;25.50;47.40
34927;DHT22;21132;48.308;14.274;2022-07-06T08:39:24;25.50;46.80
34927;DHT22;21132;48.308;14.274;2022-07-06T08:41:51;25.60;46.90
34927;DHT22;21132;48.308;14.274;2022-07-06T08:44:17;25.60;47.10
34927;DHT22;21132;48.308;14.274;2022-07-06T08:46:44;25.70;46.70
34927;DHT22;21132;48.308;14.274;2022-07-06T08:49:16;25.80;46.50
34927;DHT22;21132;48.308;14.274;2022-07-06T08:51:42;25.80;46.70
34927;DHT22;21132;48.308;14.274;2022-07-06T08:54:10;25.80;46.30
34927;DHT22;21132;48.308;14.274;2022-07-06T08:56:37;25.90;45.20
34927;DHT22;21132;48.308;14.274;2022-07-06T08:59:03;26.00;45.80
34927;DHT22;21132;48.308;14.274;2022-07-06T09:01:29;26.00;45.60
34927;DHT22;21132;48.308;14.274;2022-07-06T09:03:55;26.10;45.60
34927;DHT22;21132;48.308;14.274;2022-07-06T09:06:25;26.10;44.70
34927;DHT22;21132;48.308;14.274;2022-07-06T09:08:56;26.20;44.60
34927;DHT22;21132;48.308;14.274;2022-07-06T09:11:22;26.30;44.70
34927;DHT22;21132;48.308;14.274;2022-07-06T09:13:49;26.30;44.20
34927;DHT22;21132;48.308;14.274;2022-07-06T09:16:16;26.40;44.70
34927;DHT22;21132;48.308;14.274;2022-07-06T09:18:46;26.40;44.40
34927;DHT22;21132;48.308;14.274;2022-07-06T09:21:25;26.50;44.50
34927;DHT22;21132;48.308;14.274;2022-07-06T09:23:56;26.50;44.40
34927;DHT22;21132;48.308;14.274;2022-07-06T09:26:22;26.60;44.70
34927;DHT22;21132;48.308;14.274;2022-07-06T09:28:49;26.60;43.30
34927;DHT22;21132;48.308;14.274;2022-07-06T09:31:15;26.60;43.80
34927;DHT22;21132;48.308;14.274;2022-07-06T09:33:57;26.60;43.70
34927;DHT22;21132;48.308;14.274;2022-07-06T09:39:21;26.80;45.20
34927;DHT22;21132;48.308;14.274;2022-07-06T09:41:52;26.90;45.00
34927;DHT22;21132;48.308;14.274;2022-07-06T09:44:24;26.90;42.00
34927;DHT22;21132;48.308;14.274;2022-07-06T09:46:52;26.90;42.80
34927;DHT22;21132;48.308;14.274;2022-07-06T09:49:19;27.00;42.30
34927;DHT22;21132;48.308;14.274;2022-07-06T09:51:48;27.00;41.40
34927;DHT22;21132;48.308;14.274;2022-07-06T09:54:15;27.00;41.00
34927;DHT22;21132;48.308;14.274;2022-07-06T09:56:43;27.00;41.40
34927;DHT22;21132;48.308;14.274;2022-07-06T09:59:15;27.10;40.90
34927;DHT22;21132;48.308;14.274;2022-07-06T10:01:42;27.10;41.00
34927;DHT22;21132;48.308;14.274;2022-07-06T10:04:10;27.20;40.60
34927;DHT22;21132;48.308;14.274;2022-07-06T10:06:38;27.30;40.50
34927;DHT22;21132;48.308;14.274;2022-07-06T10:09:08;27.30;40.40
34927;DHT22;21132;48.308;14.274;2022-07-06T10:11:38;27.30;40.60
34927;DHT22;21132;48.308;14.274;2022-07-06T10:14:06;27.30;41.00
34927;DHT22;21132;48.308;14.274;2022-07-06T10:16:36;27.40;40.50
34927;DHT22;21132;48.308;14.274;2022-07-06T10:19:05;27.40;39.90
34927;DHT22;21132;48.308;14.274;2022-07-06T10:21:33;27.50;40.60
34927;DHT22;21132;48.308;14.274;2022-07-06T10:24:00;27.50;39.20
34927;DHT22;21132;48.308;14.274;2022-07-06T10:26:27;27.60;39.70
34927;DHT22;21132;48.308;14.274;2022-07-06T10:28:53;27.60;39.60
34927;DHT22;21132;48.308;14.274;2022-07-06T10:31:19;27.60;40.20
34927;DHT22;21132;48.308;14.274;2022-07-06T10:33:46;27.60;39.70
34927;DHT22;21132;48.308;14.274;2022-07-06T10:36:13;27.70;40.30
34927;DHT22;21132;48.308;14.274;2022-07-06T10:38:40;27.70;39.40
34927;DHT22;21132;48.308;14.274;2022-07-06T10:41:08;27.70;39.30
34927;DHT22;21132;48.308;14.274;2022-07-06T10:43:47;27.80;39.30
34927;DHT22;21132;48.308;14.274;2022-07-06T10:46:17;27.80;38.90
34927;DHT22;21132;48.308;14.274;2022-07-06T10:48:46;27.80;39.30
34927;DHT22;21132;48.308;14.274;2022-07-06T10:51:23;27.90;39.90
34927;DHT22;21132;48.308;14.274;2022-07-06T10:54:04;27.90;38.80
34927;DHT22;21132;48.308;14.274;2022-07-06T10:56:37;28.00;39.20
34927;DHT22;21132;48.308;14.274;2022-07-06T11:01:38;28.20;40.50
34927;DHT22;21132;48.308;14.274;2022-07-06T11:04:08;28.30;38.10
34927;DHT22;21132;48.308;14.274;2022-07-06T11:06:38;28.40;37.00
34927;DHT22;21132;48.308;14.274;2022-07-06T11:09:09;28.50;37.70
34927;DHT22;21132;48.308;14.274;2022-07-06T11:19:16;29.10;37.00
34927;DHT22;21132;48.308;14.274;2022-07-06T11:21:47;29.20;35.80
34927;DHT22;21132;48.308;14.274;2022-07-06T11:24:16;29.40;35.50
34927;DHT22;21132;48.308;14.274;2022-07-06T11:26:44;29.50;35.70
34927;DHT22;21132;48.308;14.274;2022-07-06T11:29:12;29.60;34.30
34927;DHT22;21132;48.308;14.274;2022-07-06T11:31:40;29.60;33.90
34927;DHT22;21132;48.308;14.274;2022-07-06T11:34:07;29.70;34.50
34927;DHT22;21132;48.308;14.274;2022-07-06T11:36:34;29.70;33.70
34927;DHT22;21132;48.308;14.274;2022-07-06T11:39:00;29.70;33.60
34927;DHT22;21132;48.308;14.274;2022-07-06T11:41:26;29.80;33.40
34927;DHT22;21132;48.308;14.274;2022-07-06T11:43:52;29.80;33.40
34927;DHT22;21132;48.308;14.274;2022-07-06T11:46:29;29.90;33.20
34927;DHT22;21132;48.308;14.274;2022-07-06T11:49:07;29.80;32.30
34927;DHT22;21132;48.308;14.274;2022-07-06T11:51:38;29.80;32.30
34927;DHT22;21132;48.308;14.274;2022-07-06T11:54:10;29.90;32.30
34927;DHT22;21132;48.308;14.274;2022-07-06T11:56:36;29.80;31.40
34927;DHT22;21132;48.308;14.274;2022-07-06T11:59:03;29.90;31.30
34927;DHT22;21132;48.308;14.274;2022-07-06T12:01:30;29.90;31.30
34927;DHT22;21132;48.308;14.274;2022-07-06T12:04:01;30.00;31.00
34927;DHT22;21132;48.308;14.274;2022-07-06T12:06:29;30.10;31.80
34927;DHT22;21132;48.308;14.274;2022-07-06T12:09:00;30.30;31.30
34927;DHT22;21132;48.308;14.274;2022-07-06T12:11:35;30.40;31.50
34927;DHT22;21132;48.308;14.274;2022-07-06T12:14:17;30.50;29.90
34927;DHT22;21132;48.308;14.274;2022-07-06T12:16:44;30.50;29.70
34927;DHT22;21132;48.308;14.274;2022-07-06T12:19:10;30.50;30.00
34927;DHT22;21132;48.308;14.274;2022-07-06T12:21:46;30.60;29.60
34927;DHT22;21132;48.308;14.274;2022-07-06T12:24:33;30.60;30.00
34927;DHT22;21132;48.308;14.274;2022-07-06T12:27:11;30.60;29.60
34927;DHT22;21132;48.308;14.274;2022-07-06T12:29:37;30.70;29.60
34927;DHT22;21132;48.308;14.274;2022-07-06T12:32:03;30.60;29.00
34927;DHT22;21132;48.308;14.274;2022-07-06T12:34:31;30.60;28.10
34927;DHT22;21132;48.308;14.274;2022-07-06T12:37:06;30.70;28.80
34927;DHT22;21132;48.308;14.274;2022-07-06T12:39:43;30.70;29.50
34927;DHT22;21132;48.308;14.274;2022-07-06T12:42:10;30.80;28.80
34927;DHT22;21132;48.308;14.274;2022-07-06T12:44:46;30.80;28.40
34927;DHT22;21132;48.308;14.274;2022-07-06T12:47:17;30.90;28.60
34927;DHT22;21132;48.308;14.274;2022-07-06T12:49:43;31.00;28.60
34927;DHT22;21132;48.308;14.274;2022-07-06T12:52:13;31.10;28.30
34927;DHT22;21132;48.308;14.274;2022-07-06T12:54:48;31.30;28.80
34927;DHT22;21132;48.308;14.274;2022-07-06T12:57:16;31.40;28.40
34927;DHT22;21132;48.308;14.274;2022-07-06T13:02:26;31.70;27.00
34927;DHT22;21132;48.308;14.274;2022-07-06T13:05:00;31.80;27.30
34927;DHT22;21132;48.308;14.274;2022-07-06T13:07:28;31.90;27.50
34927;DHT22;21132;48.308;14.274;2022-07-06T13:09:56;32.10;27.50
34927;DHT22;21132;48.308;14.274;2022-07-06T13:12:22;32.30;27.20
34927;DHT22;21132;48.308;14.274;2022-07-06T13:14:49;32.40;26.80
34927;DHT22;21132;48.308;14.274;2022-07-06T13:17:15;32.50;26.20
34927;DHT22;21132;48.308;14.274;2022-07-06T13:19:41;32.50;26.50
34927;DHT22;21132;48.308;14.274;2022-07-06T13:22:07;32.50;26.70
34927;DHT22;21132;48.308;14.274;2022-07-06T13:24:32;32.60;27.40
34927;DHT22;21132;48.308;14.274;2022-07-06T13:26:58;32.60;27.50
34927;DHT22;21132;48.308;14.274;2022-07-06T13:29:24;32.60;27.10
34927;DHT22;21132;48.308;14.274;2022-07-06T13:31:50;32.50;26.90
34927;DHT22;21132;48.308;14.274;2022-07-06T13:34:16;32.40;27.30
34927;DHT22;21132;48.308;14.274;2022-07-06T13:36:43;32.30;27.60
34927;DHT22;21132;48.308;14.274;2022-07-06T13:39:09;32.30;28.10
34927;DHT22;21132;48.308;14.274;2022-07-06T13:41:35;32.40;28.30
34927;DHT22;21132;48.308;14.274;2022-07-06T13:44:01;32.70;28.90
34927;DHT22;21132;48.308;14.274;2022-07-06T13:46:28;33.20;28.20
34927;DHT22;21132;48.308;14.274;2022-07-06T13:48:54;33.70;27.50
34927;DHT22;21132;48.308;14.274;2022-07-06T13:51:22;34.30;27.10
34927;DHT22;21132;48.308;14.274;2022-07-06T13:53:48;34.90;26.00
34927;DHT22;21132;48.308;14.274;2022-07-06T13:56:14;35.40;25.60
34927;DHT22;21132;48.308;14.274;2022-07-06T13:58:39;36.00;24.50
34927;DHT22;21132;48.308;14.274;2022-07-06T14:01:05;36.40;24.20
34927;DHT22;21132;48.308;14.274;2022-07-06T14:03:31;37.00;23.40
34927;DHT22;21132;48.308;14.274;2022-07-06T14:05:58;37.50;23.10
34927;DHT22;21132;48.308;14.274;2022-07-06T14:08:26;38.00;22.70
34927;DHT22;21132;48.308;14.274;2022-07-06T14:10:52;38.60;21.90
34927;DHT22;21132;48.308;14.274;2022-07-06T14:13:19;39.20;22.10
34927;DHT22;21132;48.308;14.274;2022-07-06T14:15:45;39.80;21.10
34927;DHT22;21132;48.308;14.274;2022-07-06T14:18:11;40.20;20.40
34927;DHT22;21132;48.308;14.274;2022-07-06T14:20:37;40.40;20.10
34927;DHT22;21132;48.308;14.274;2022-07-06T14:23:03;40.70;19.50
34927;DHT22;21132;48.308;14.274;2022-07-06T14:25:29;40.90;19.50
34927;DHT22;21132;48.308;14.274;2022-07-06T14:27:55;41.10;19.30
34927;DHT22;21132;48.308;14.274;2022-07-06T14:30:21;41.20;19.40
34927;DHT22;21132;48.308;14.274;2022-07-06T14:32:47;41.30;19.30
34927;DHT22;21132;48.308;14.274;2022-07-06T14:35:16;41.20;18.70
34927;DHT22;21132;48.308;14.274;2022-07-06T14:37:42;40.90;18.50
34927;DHT22;21132;48.308;14.274;2022-07-06T14:40:08;40.90;19.30
34927;DHT22;21132;48.308;14.274;2022-07-06T14:42:34;40.80;19.00
34927;DHT22;21132;48.308;14.274;2022-07-06T14:45:00;40.70;18.30
34927;DHT22;21132;48.308;14.274;2022-07-06T14:47:26;40.70;18.70
34927;DHT22;21132;48.308;14.274;2022-07-06T14:49:51;40.80;18.90
34927;DHT22;21132;48.308;14.274;2022-07-06T14:52:18;41.20;18.70
34927;DHT22;21132;48.308;14.274;2022-07-06T14:54:44;41.70;17.80
34927;DHT22;21132;48.308;14.274;2022-07-06T14:57:10;42.20;17.80
34927;DHT22;21132;48.308;14.274;2022-07-06T14:59:37;42.70;17.50
34927;DHT22;21132;48.308;14.274;2022-07-06T15:02:03;43.20;17.00
34927;DHT22;21132;48.308;14.274;2022-07-06T15:04:29;43.60;16.40
34927;DHT22;21132;48.308;14.274;2022-07-06T15:06:55;44.00;16.90
34927;DHT22;21132;48.308;14.274;2022-07-06T15:09:22;44.40;16.40
34927;DHT22;21132;48.308;14.274;2022-07-06T15:11:48;44.70;15.60
34927;DHT22;21132;48.308;14.274;2022-07-06T15:14:14;44.80;14.70
34927;DHT22;21132;48.308;14.274;2022-07-06T15:16:42;44.90;14.70
34927;DHT22;21132;48.308;14.274;2022-07-06T15:19:10;45.10;15.10
34927;DHT22;21132;48.308;14.274;2022-07-06T15:21:35;45.20;14.80
34927;DHT22;21132;48.308;14.274;2022-07-06T15:24:01;45.00;14.80
34927;DHT22;21132;48.308;14.274;2022-07-06T15:26:28;44.70;14.60
34927;DHT22;21132;48.308;14.274;2022-07-06T15:28:54;44.30;14.30
34927;DHT22;21132;48.308;14.274;2022-07-06T15:31:20;43.60;14.30
34927;DHT22;21132;48.308;14.274;2022-07-06T15:33:46;43.10;14.60